sensor_id;sensor_type;location;lat;lon;timestamp;temperature;humidity
52675;DHT22;38569;52.722;6.440;2023-03-31T00:00:51;10.50;99.90
52675;DHT22;38569;52.722;6.440;2023-03-31T00:03:17;10.50;99.90
52675;DHT22;38569;52.722;6.440;2023-03-31T00:05:53;10.40;99.90
52675;DHT22;38569;52.722;6.440;2023-03-31T00:08:19;10.40;99.90
52675;DHT22;38569;52.722;6.440;2023-03-31T00:10:46;10.30;99.90
52675;DHT22;38569;52.722;6.440;2023-03-31T00:13:13;10.30;99.90
52675;DHT22;38569;52.722;6.440;2023-03-31T00:15:40;10.30;99.90
52675;DHT22;38569;52.722;6.440;2023-03-31T00:18:06;10.20;99.90
52675;DHT22;38569;52.722;6.440;2023-03-31T00:20:32;10.20;99.90
52675;DHT22;38569;52.722;6.440;2023-03-31T00:22:58;10.20;99.90
52675;DHT22;38569;52.722;6.440;2023-03-31T00:25:26;10.10;99.90
52675;DHT22;38569;52.722;6.440;2023-03-31T00:27:52;10.10;99.90
52675;DHT22;38569;52.722;6.440;2023-03-31T00:30:18;10.10;99.90
52675;DHT22;38569;52.722;6.440;2023-03-31T00:32:44;10.00;99.90
52675;DHT22;38569;52.722;6.440;2023-03-31T00:35:10;10.00;99.90
52675;DHT22;38569;52.722;6.440;2023-03-31T00:37:36;10.00;99.90
52675;DHT22;38569;52.722;6.440;2023-03-31T00:40:02;10.00;99.90
52675;DHT22;38569;52.722;6.440;2023-03-31T00:42:41;9.90;99.90
52675;DHT22;38569;52.722;6.440;2023-03-31T00:48:01;9.90;99.90
52675;DHT22;38569;52.722;6.440;2023-03-31T00:50:32;9.80;99.90
52675;DHT22;38569;52.722;6.440;2023-03-31T00:53:09;9.80;99.90
52675;DHT22;38569;52.722;6.440;2023-03-31T00:55:42;9.80;99.90
52675;DHT22;38569;52.722;6.440;2023-03-31T00:58:10;9.80;99.90
52675;DHT22;38569;52.722;6.440;2023-03-31T01:00:40;9.70;99.90
52675;DHT22;38569;52.722;6.440;2023-03-31T01:03:07;9.70;99.90
52675;DHT22;38569;52.722;6.440;2023-03-31T01:05:42;9.70;99.90
52675;DHT22;38569;52.722;6.440;2023-03-31T01:08:08;9.70;99.90
52675;DHT22;38569;52.722;6.440;2023-03-31T01:10:38;9.70;99.90
52675;DHT22;38569;52.722;6.440;2023-03-31T01:13:10;9.70;99.90
52675;DHT22;38569;52.722;6.440;2023-03-31T01:15:38;9.70;99.90
52675;DHT22;38569;52.722;6.440;2023-03-31T01:18:07;9.70;99.90
52675;DHT22;38569;52.722;6.440;2023-03-31T01:37:44;9.80;99.90
52675;DHT22;38569;52.722;6.440;2023-03-31T01:43:00;9.80;99.90
52675;DHT22;38569;52.722;6.440;2023-03-31T01:45:53;9.90;99.90
52675;DHT22;38569;52.722;6.440;2023-03-31T01:50:57;9.90;99.90
52675;DHT22;38569;52.722;6.440;2023-03-31T01:56:11;9.90;99.90
52675;DHT22;38569;52.722;6.440;2023-03-31T01:58:42;10.00;99.90
52675;DHT22;38569;52.722;6.440;2023-03-31T02:02:02;10.00;99.90
52675;DHT22;38569;52.722;6.440;2023-03-31T02:04:45;10.10;99.90
52675;DHT22;38569;52.722;6.440;2023-03-31T02:07:16;10.10;99.90
52675;DHT22;38569;52.722;6.440;2023-03-31T02:09:48;10.10;99.90
52675;DHT22;38569;52.722;6.440;2023-03-31T02:12:15;10.10;99.90
52675;DHT22;38569;52.722;6.440;2023-03-31T02:14:44;10.20;99.90
52675;DHT22;38569;52.722;6.440;2023-03-31T02:17:18;10.20;99.90
52675;DHT22;38569;52.722;6.440;2023-03-31T02:19:47;10.20;99.90
52675;DHT22;38569;52.722;6.440;2023-03-31T02:22:16;10.20;99.90
52675;DHT22;38569;52.722;6.440;2023-03-31T02:24:45;10.20;99.90
52675;DHT22;38569;52.722;6.440;2023-03-31T02:27:37;10.20;99.90
52675;DHT22;38569;52.722;6.440;2023-03-31T02:30:05;10.20;99.90
52675;DHT22;38569;52.722;6.440;2023-03-31T02:32:36;10.30;99.90
52675;DHT22;38569;52.722;6.440;2023-03-31T02:35:03;10.30;99.90
52675;DHT22;38569;52.722;6.440;2023-03-31T02:37:29;10.30;99.90
52675;DHT22;38569;52.722;6.440;2023-03-31T02:39:58;10.30;99.90
52675;DHT22;38569;52.722;6.440;2023-03-31T02:42:24;10.40;99.90
52675;DHT22;38569;52.722;6.440;2023-03-31T02:44:50;10.30;99.90
52675;DHT22;38569;52.722;6.440;2023-03-31T02:47:18;10.40;99.90
52675;DHT22;38569;52.722;6.440;2023-03-31T02:49:48;10.40;99.90
52675;DHT22;38569;52.722;6.440;2023-03-31T02:52:44;10.40;99.90
52675;DHT22;38569;52.722;6.440;2023-03-31T02:58:03;10.40;99.90
52675;DHT22;38569;52.722;6.440;2023-03-31T03:03:42;10.50;99.90
52675;DHT22;38569;52.722;6.440;2023-03-31T03:07:06;10.50;99.90
52675;DHT22;38569;52.722;6.440;2023-03-31T03:12:15;10.50;99.90
52675;DHT22;38569;52.722;6.440;2023-03-31T03:14:55;10.40;99.90
52675;DHT22;38569;52.722;6.440;2023-03-31T03:17:31;10.30;99.90
52675;DHT22;38569;52.722;6.440;2023-03-31T03:20:00;10.20;99.90
52675;DHT22;38569;52.722;6.440;2023-03-31T03:22:26;10.10;99.90
52675;DHT22;38569;52.722;6.440;2023-03-31T03:24:52;10.10;99.90
52675;DHT22;38569;52.722;6.440;2023-03-31T03:27:19;10.10;99.90
52675;DHT22;38569;52.722;6.440;2023-03-31T03:29:47;10.10;99.90
52675;DHT22;38569;52.722;6.440;2023-03-31T03:32:13;10.00;99.90
52675;DHT22;38569;52.722;6.440;2023-03-31T03:34:39;10.00;99.90
52675;DHT22;38569;52.722;6.440;2023-03-31T03:37:05;10.00;99.90
52675;DHT22;38569;52.722;6.440;2023-03-31T03:39:31;9.90;99.90
52675;DHT22;38569;52.722;6.440;2023-03-31T03:41:57;9.90;99.90
52675;DHT22;38569;52.722;6.440;2023-03-31T03:44:22;9.90;99.90
52675;DHT22;38569;52.722;6.440;2023-03-31T03:46:48;9.90;99.90
52675;DHT22;38569;52.722;6.440;2023-03-31T03:49:14;9.90;99.90
52675;DHT22;38569;52.722;6.440;2023-03-31T03:51:39;9.90;99.90
52675;DHT22;38569;52.722;6.440;2023-03-31T03:54:05;9.90;99.90
52675;DHT22;38569;52.722;6.440;2023-03-31T03:56:31;9.90;99.90
52675;DHT22;38569;52.722;6.440;2023-03-31T03:58:56;9.90;99.90
52675;DHT22;38569;52.722;6.440;2023-03-31T04:01:22;9.90;99.90
52675;DHT22;38569;52.722;6.440;2023-03-31T04:03:48;9.90;99.90
52675;DHT22;38569;52.722;6.440;2023-03-31T04:06:14;9.90;99.90
52675;DHT22;38569;52.722;6.440;2023-03-31T04:08:40;9.90;99.90
52675;DHT22;38569;52.722;6.440;2023-03-31T04:11:17;9.90;99.90
52675;DHT22;38569;52.722;6.440;2023-03-31T04:13:43;9.90;99.90
52675;DHT22;38569;52.722;6.440;2023-03-31T04:16:09;9.90;99.90
52675;DHT22;38569;52.722;6.440;2023-03-31T04:18:36;9.90;99.90
52675;DHT22;38569;52.722;6.440;2023-03-31T04:21:13;9.90;99.90
52675;DHT22;38569;52.722;6.440;2023-03-31T04:23:48;9.90;99.90
52675;DHT22;38569;52.722;6.440;2023-03-31T04:26:16;9.90;99.90
52675;DHT22;38569;52.722;6.440;2023-03-31T04:28:43;9.90;99.90
52675;DHT22;38569;52.722;6.440;2023-03-31T04:31:13;9.90;99.90
52675;DHT22;38569;52.722;6.440;2023-03-31T04:33:53;9.90;99.90
52675;DHT22;38569;52.722;6.440;2023-03-31T04:36:19;9.90;99.90
52675;DHT22;38569;52.722;6.440;2023-03-31T04:38:47;9.90;99.90
52675;DHT22;38569;52.722;6.440;2023-03-31T04:41:18;10.00;99.90
52675;DHT22;38569;52.722;6.440;2023-03-31T04:43:44;10.00;99.90
52675;DHT22;38569;52.722;6.440;2023-03-31T04:46:09;9.90;99.90
52675;DHT22;38569;52.722;6.440;2023-03-31T04:48:35;9.90;99.90
52675;DHT22;38569;52.722;6.440;2023-03-31T04:51:01;9.90;99.90
52675;DHT22;38569;52.722;6.440;2023-03-31T04:53:27;9.90;99.90
52675;DHT22;38569;52.722;6.440;2023-03-31T04:55:53;9.90;99.90
52675;DHT22;38569;52.722;6.440;2023-03-31T04:58:18;9.90;99.90
52675;DHT22;38569;52.722;6.440;2023-03-31T05:00:44;9.90;99.90
52675;DHT22;38569;52.722;6.440;2023-03-31T05:03:10;9.90;99.90
52675;DHT22;38569;52.722;6.440;2023-03-31T05:05:36;9.90;99.90
52675;DHT22;38569;52.722;6.440;2023-03-31T05:08:02;9.90;99.90
52675;DHT22;38569;52.722;6.440;2023-03-31T05:10:28;9.90;99.90
52675;DHT22;38569;52.722;6.440;2023-03-31T05:12:54;9.90;99.90
52675;DHT22;38569;52.722;6.440;2023-03-31T05:15:20;9.90;99.90
52675;DHT22;38569;52.722;6.440;2023-03-31T05:17:46;9.90;99.90
52675;DHT22;38569;52.722;6.440;2023-03-31T05:20:12;9.90;99.90
52675;DHT22;38569;52.722;6.440;2023-03-31T05:22:40;9.90;99.90
52675;DHT22;38569;52.722;6.440;2023-03-31T05:25:07;9.90;99.90
52675;DHT22;38569;52.722;6.440;2023-03-31T05:27:34;9.90;99.90
52675;DHT22;38569;52.722;6.440;2023-03-31T05:30:01;9.90;99.90
52675;DHT22;38569;52.722;6.440;2023-03-31T05:32:27;9.80;99.90
52675;DHT22;38569;52.722;6.440;2023-03-31T05:34:53;9.80;99.90
52675;DHT22;38569;52.722;6.440;2023-03-31T05:37:25;9.90;99.90
52675;DHT22;38569;52.722;6.440;2023-03-31T05:39:52;9.80;99.90
52675;DHT22;38569;52.722;6.440;2023-03-31T05:42:18;9.80;99.90
52675;DHT22;38569;52.722;6.440;2023-03-31T05:44:44;9.80;99.90
52675;DHT22;38569;52.722;6.440;2023-03-31T05:47:10;9.80;99.90
52675;DHT22;38569;52.722;6.440;2023-03-31T05:49:36;9.80;99.90
52675;DHT22;38569;52.722;6.440;2023-03-31T05:52:04;9.80;99.90
52675;DHT22;38569;52.722;6.440;2023-03-31T05:54:31;9.90;99.90
52675;DHT22;38569;52.722;6.440;2023-03-31T05:56:56;9.90;99.90
52675;DHT22;38569;52.722;6.440;2023-03-31T05:59:22;9.80;99.90
52675;DHT22;38569;52.722;6.440;2023-03-31T06:01:48;9.90;99.90
52675;DHT22;38569;52.722;6.440;2023-03-31T06:04:14;9.90;99.90
52675;DHT22;38569;52.722;6.440;2023-03-31T06:06:39;9.90;99.90
52675;DHT22;38569;52.722;6.440;2023-03-31T06:09:07;9.90;99.90
52675;DHT22;38569;52.722;6.440;2023-03-31T06:11:33;9.80;99.90
52675;DHT22;38569;52.722;6.440;2023-03-31T06:13:59;9.80;99.90
52675;DHT22;38569;52.722;6.440;2023-03-31T06:16:25;9.80;99.90
52675;DHT22;38569;52.722;6.440;2023-03-31T06:18:50;9.90;99.90
52675;DHT22;38569;52.722;6.440;2023-03-31T06:21:18;9.90;99.90
52675;DHT22;38569;52.722;6.440;2023-03-31T06:23:45;9.90;99.90
52675;DHT22;38569;52.722;6.440;2023-03-31T06:26:16;9.90;99.90
52675;DHT22;38569;52.722;6.440;2023-03-31T06:28:43;9.90;99.90
52675;DHT22;38569;52.722;6.440;2023-03-31T06:31:11;9.90;99.90
52675;DHT22;38569;52.722;6.440;2023-03-31T06:33:38;9.90;99.90
52675;DHT22;38569;52.722;6.440;2023-03-31T06:36:05;9.90;99.90
52675;DHT22;38569;52.722;6.440;2023-03-31T06:38:32;9.90;99.90
52675;DHT22;38569;52.722;6.440;2023-03-31T06:40:58;9.90;99.90
52675;DHT22;38569;52.722;6.440;2023-03-31T06:43:24;9.90;99.90
52675;DHT22;38569;52.722;6.440;2023-03-31T06:45:51;9.90;99.90
52675;DHT22;38569;52.722;6.440;2023-03-31T06:48:17;9.90;99.90
52675;DHT22;38569;52.722;6.440;2023-03-31T06:50:43;10.00;99.90
52675;DHT22;38569;52.722;6.440;2023-03-31T06:53:09;9.90;99.90
52675;DHT22;38569;52.722;6.440;2023-03-31T06:55:35;10.00;99.90
52675;DHT22;38569;52.722;6.440;2023-03-31T06:58:01;10.00;99.90
52675;DHT22;38569;52.722;6.440;2023-03-31T07:00:27;10.00;99.90
52675;DHT22;38569;52.722;6.440;2023-03-31T07:02:53;10.00;99.90
52675;DHT22;38569;52.722;6.440;2023-03-31T07:05:20;10.00;99.90
52675;DHT22;38569;52.722;6.440;2023-03-31T07:07:52;10.00;99.90
52675;DHT22;38569;52.722;6.440;2023-03-31T07:10:18;10.10;99.90
52675;DHT22;38569;52.722;6.440;2023-03-31T07:12:44;10.10;99.90
52675;DHT22;38569;52.722;6.440;2023-03-31T07:15:10;10.10;99.90
52675;DHT22;38569;52.722;6.440;2023-03-31T07:17:36;10.20;99.90
52675;DHT22;38569;52.722;6.440;2023-03-31T07:20:12;10.20;99.90
52675;DHT22;38569;52.722;6.440;2023-03-31T07:22:44;10.20;99.90
52675;DHT22;38569;52.722;6.440;2023-03-31T07:25:11;10.30;99.90
52675;DHT22;38569;52.722;6.440;2023-03-31T07:27:38;10.20;99.90
52675;DHT22;38569;52.722;6.440;2023-03-31T07:30:05;10.20;99.90
52675;DHT22;38569;52.722;6.440;2023-03-31T07:32:31;10.30;99.90
52675;DHT22;38569;52.722;6.440;2023-03-31T07:34:58;10.30;99.90
52675;DHT22;38569;52.722;6.440;2023-03-31T07:37:24;10.30;99.90
52675;DHT22;38569;52.722;6.440;2023-03-31T07:39:50;10.30;99.90
52675;DHT22;38569;52.722;6.440;2023-03-31T07:42:16;10.30;99.90
52675;DHT22;38569;52.722;6.440;2023-03-31T07:44:41;10.30;99.90
52675;DHT22;38569;52.722;6.440;2023-03-31T07:47:07;10.40;99.90
52675;DHT22;38569;52.722;6.440;2023-03-31T07:49:34;10.30;99.90
52675;DHT22;38569;52.722;6.440;2023-03-31T07:52:00;10.30;99.90
52675;DHT22;38569;52.722;6.440;2023-03-31T07:54:26;10.30;99.90
52675;DHT22;38569;52.722;6.440;2023-03-31T07:56:52;10.40;99.90
52675;DHT22;38569;52.722;6.440;2023-03-31T07:59:18;10.50;99.90
52675;DHT22;38569;52.722;6.440;2023-03-31T08:01:44;10.50;99.90
52675;DHT22;38569;52.722;6.440;2023-03-31T08:04:11;10.50;99.90
52675;DHT22;38569;52.722;6.440;2023-03-31T08:06:37;10.50;99.90
52675;DHT22;38569;52.722;6.440;2023-03-31T08:09:04;10.60;99.90
52675;DHT22;38569;52.722;6.440;2023-03-31T08:11:35;10.50;99.90
52675;DHT22;38569;52.722;6.440;2023-03-31T08:14:01;10.50;99.90
52675;DHT22;38569;52.722;6.440;2023-03-31T08:16:26;10.50;99.90
52675;DHT22;38569;52.722;6.440;2023-03-31T08:18:52;10.60;99.90
52675;DHT22;38569;52.722;6.440;2023-03-31T08:21:18;10.60;99.90
52675;DHT22;38569;52.722;6.440;2023-03-31T08:23:43;10.70;99.90
52675;DHT22;38569;52.722;6.440;2023-03-31T08:26:15;10.70;99.90
52675;DHT22;38569;52.722;6.440;2023-03-31T08:28:44;10.70;99.90
52675;DHT22;38569;52.722;6.440;2023-03-31T08:31:10;10.70;99.90
52675;DHT22;38569;52.722;6.440;2023-03-31T08:33:37;10.70;99.90
52675;DHT22;38569;52.722;6.440;2023-03-31T08:36:05;10.70;99.90
52675;DHT22;38569;52.722;6.440;2023-03-31T08:38:33;10.70;99.90
52675;DHT22;38569;52.722;6.440;2023-03-31T08:41:02;10.60;99.90
52675;DHT22;38569;52.722;6.440;2023-03-31T08:43:32;10.60;99.90
52675;DHT22;38569;52.722;6.440;2023-03-31T08:46:00;10.60;99.90
52675;DHT22;38569;52.722;6.440;2023-03-31T08:48:29;10.60;99.90
52675;DHT22;38569;52.722;6.440;2023-03-31T08:51:10;10.60;99.90
52675;DHT22;38569;52.722;6.440;2023-03-31T08:53:42;10.70;99.90
52675;DHT22;38569;52.722;6.440;2023-03-31T08:56:16;10.90;99.90
52675;DHT22;38569;52.722;6.440;2023-03-31T08:58:47;10.90;99.90
52675;DHT22;38569;52.722;6.440;2023-03-31T09:01:26;11.00;99.90
52675;DHT22;38569;52.722;6.440;2023-03-31T09:07:20;11.10;99.90
52675;DHT22;38569;52.722;6.440;2023-03-31T09:12:51;11.00;99.90
52675;DHT22;38569;52.722;6.440;2023-03-31T09:18:03;11.00;99.90
52675;DHT22;38569;52.722;6.440;2023-03-31T09:20:35;11.00;99.90
52675;DHT22;38569;52.722;6.440;2023-03-31T09:23:33;11.10;99.90
52675;DHT22;38569;52.722;6.440;2023-03-31T09:26:02;11.20;99.90
52675;DHT22;38569;52.722;6.440;2023-03-31T09:28:38;11.10;99.90
52675;DHT22;38569;52.722;6.440;2023-03-31T09:31:15;11.10;99.90
52675;DHT22;38569;52.722;6.440;2023-03-31T09:33:44;11.10;99.90
52675;DHT22;38569;52.722;6.440;2023-03-31T09:36:20;11.20;99.90
52675;DHT22;38569;52.722;6.440;2023-03-31T09:38:47;11.20;99.90
52675;DHT22;38569;52.722;6.440;2023-03-31T09:41:14;11.20;99.90
52675;DHT22;38569;52.722;6.440;2023-03-31T09:43:41;11.10;99.90
52675;DHT22;38569;52.722;6.440;2023-03-31T09:46:35;11.00;99.90
52675;DHT22;38569;52.722;6.440;2023-03-31T09:49:05;11.00;99.90
52675;DHT22;38569;52.722;6.440;2023-03-31T09:51:34;11.10;99.90
52675;DHT22;38569;52.722;6.440;2023-03-31T09:56:50;11.30;99.90
52675;DHT22;38569;52.722;6.440;2023-03-31T09:59:34;11.30;99.90
52675;DHT22;38569;52.722;6.440;2023-03-31T10:02:36;11.40;99.90
52675;DHT22;38569;52.722;6.440;2023-03-31T10:05:06;11.50;99.90
52675;DHT22;38569;52.722;6.440;2023-03-31T10:07:33;11.50;99.90
52675;DHT22;38569;52.722;6.440;2023-03-31T10:09:59;11.50;99.90
52675;DHT22;38569;52.722;6.440;2023-03-31T10:12:28;11.60;99.90
52675;DHT22;38569;52.722;6.440;2023-03-31T10:15:11;11.80;99.90
52675;DHT22;38569;52.722;6.440;2023-03-31T10:17:40;11.70;99.90
52675;DHT22;38569;52.722;6.440;2023-03-31T10:20:31;11.80;99.90
52675;DHT22;38569;52.722;6.440;2023-03-31T10:23:02;11.70;99.90
52675;DHT22;38569;52.722;6.440;2023-03-31T10:25:29;11.70;99.90
52675;DHT22;38569;52.722;6.440;2023-03-31T10:27:56;11.60;99.90
52675;DHT22;38569;52.722;6.440;2023-03-31T10:30:34;11.60;99.90
52675;DHT22;38569;52.722;6.440;2023-03-31T10:33:26;11.50;99.90
52675;DHT22;38569;52.722;6.440;2023-03-31T10:36:06;11.50;99.90
52675;DHT22;38569;52.722;6.440;2023-03-31T10:38:41;11.40;99.90
52675;DHT22;38569;52.722;6.440;2023-03-31T10:41:08;11.30;99.90
52675;DHT22;38569;52.722;6.440;2023-03-31T10:43:42;11.40;99.90
52675;DHT22;38569;52.722;6.440;2023-03-31T10:46:08;11.40;99.90
52675;DHT22;38569;52.722;6.440;2023-03-31T10:48:39;11.40;99.90
52675;DHT22;38569;52.722;6.440;2023-03-31T10:51:26;11.50;99.90
52675;DHT22;38569;52.722;6.440;2023-03-31T10:53:54;11.70;99.90
52675;DHT22;38569;52.722;6.440;2023-03-31T10:56:42;11.70;99.90
52675;DHT22;38569;52.722;6.440;2023-03-31T11:07:37;11.90;99.90
52675;DHT22;38569;52.722;6.440;2023-03-31T11:13:27;11.80;99.90
52675;DHT22;38569;52.722;6.440;2023-03-31T11:18:14;11.90;99.90
52675;DHT22;38569;52.722;6.440;2023-03-31T11:32:24;12.60;99.90
52675;DHT22;38569;52.722;6.440;2023-03-31T11:38:24;12.70;99.90
52675;DHT22;38569;52.722;6.440;2023-03-31T11:41:04;12.80;99.90
52675;DHT22;38569;52.722;6.440;2023-03-31T11:43:43;12.90;99.90
52675;DHT22;38569;52.722;6.440;2023-03-31T11:49:23;12.80;99.90
52675;DHT22;38569;52.722;6.440;2023-03-31T11:52:02;12.70;99.90
52675;DHT22;38569;52.722;6.440;2023-03-31T12:00:02;13.30;99.90
52675;DHT22;38569;52.722;6.440;2023-03-31T12:02:39;13.60;99.90
52675;DHT22;38569;52.722;6.440;2023-03-31T12:05:09;14.10;99.90
52675;DHT22;38569;52.722;6.440;2023-03-31T12:10:34;14.40;99.90
52675;DHT22;38569;52.722;6.440;2023-03-31T12:16:41;14.40;99.90
52675;DHT22;38569;52.722;6.440;2023-03-31T12:19:13;14.30;99.90
52675;DHT22;38569;52.722;6.440;2023-03-31T12:21:46;14.10;99.90
52675;DHT22;38569;52.722;6.440;2023-03-31T12:24:13;13.90;99.90
52675;DHT22;38569;52.722;6.440;2023-03-31T12:27:56;13.80;99.90
52675;DHT22;38569;52.722;6.440;2023-03-31T12:32:58;13.50;99.90
52675;DHT22;38569;52.722;6.440;2023-03-31T12:35:31;13.30;99.90
52675;DHT22;38569;52.722;6.440;2023-03-31T12:38:09;13.10;99.90
52675;DHT22;38569;52.722;6.440;2023-03-31T12:57:32;12.50;99.90
52675;DHT22;38569;52.722;6.440;2023-03-31T13:02:37;12.60;99.90
52675;DHT22;38569;52.722;6.440;2023-03-31T13:08:04;12.40;99.90
52675;DHT22;38569;52.722;6.440;2023-03-31T13:10:31;12.30;99.90
52675;DHT22;38569;52.722;6.440;2023-03-31T13:13:10;12.30;99.90
52675;DHT22;38569;52.722;6.440;2023-03-31T13:15:38;12.40;99.90
52675;DHT22;38569;52.722;6.440;2023-03-31T13:18:06;12.60;99.90
52675;DHT22;38569;52.722;6.440;2023-03-31T13:20:36;12.70;99.90
52675;DHT22;38569;52.722;6.440;2023-03-31T13:25:47;12.70;99.90
52675;DHT22;38569;52.722;6.440;2023-03-31T13:31:03;12.30;99.90
52675;DHT22;38569;52.722;6.440;2023-03-31T13:55:31;11.80;99.90
52675;DHT22;38569;52.722;6.440;2023-03-31T13:58:26;11.80;99.90
52675;DHT22;38569;52.722;6.440;2023-03-31T14:06:39;11.90;99.90
52675;DHT22;38569;52.722;6.440;2023-03-31T14:09:14;11.80;99.90
52675;DHT22;38569;52.722;6.440;2023-03-31T14:11:43;11.90;99.90
52675;DHT22;38569;52.722;6.440;2023-03-31T14:14:13;11.90;99.90
52675;DHT22;38569;52.722;6.440;2023-03-31T14:16:58;11.90;99.90
52675;DHT22;38569;52.722;6.440;2023-03-31T14:33:07;11.90;99.90
52675;DHT22;38569;52.722;6.440;2023-03-31T14:35:42;11.90;99.90
52675;DHT22;38569;52.722;6.440;2023-03-31T14:38:18;11.80;99.90
52675;DHT22;38569;52.722;6.440;2023-03-31T14:40:52;11.90;99.90
52675;DHT22;38569;52.722;6.440;2023-03-31T14:43:22;11.90;99.90
52675;DHT22;38569;52.722;6.440;2023-03-31T14:46:01;11.80;99.90
52675;DHT22;38569;52.722;6.440;2023-03-31T14:48:30;11.80;99.90
52675;DHT22;38569;52.722;6.440;2023-03-31T14:50:59;11.80;99.90
52675;DHT22;38569;52.722;6.440;2023-03-31T14:53:26;11.80;99.90
52675;DHT22;38569;52.722;6.440;2023-03-31T14:56:16;11.70;99.90
52675;DHT22;38569;52.722;6.440;2023-03-31T14:58:50;11.80;99.90
52675;DHT22;38569;52.722;6.440;2023-03-31T15:01:22;11.80;99.90
52675;DHT22;38569;52.722;6.440;2023-03-31T15:03:49;11.80;99.90
52675;DHT22;38569;52.722;6.440;2023-03-31T15:06:16;11.90;99.90
52675;DHT22;38569;52.722;6.440;2023-03-31T15:08:42;12.00;99.90
52675;DHT22;38569;52.722;6.440;2023-03-31T15:11:13;12.00;99.90
52675;DHT22;38569;52.722;6.440;2023-03-31T15:13:43;12.10;99.90
52675;DHT22;38569;52.722;6.440;2023-03-31T15:16:53;12.10;99.90
52675;DHT22;38569;52.722;6.440;2023-03-31T15:22:07;12.10;99.90
52675;DHT22;38569;52.722;6.440;2023-03-31T15:24:39;12.20;99.90
52675;DHT22;38569;52.722;6.440;2023-03-31T15:27:30;12.20;99.90
52675;DHT22;38569;52.722;6.440;2023-03-31T15:29:57;12.20;99.90
52675;DHT22;38569;52.722;6.440;2023-03-31T15:32:25;12.10;99.90
52675;DHT22;38569;52.722;6.440;2023-03-31T15:34:52;12.10;99.90
52675;DHT22;38569;52.722;6.440;2023-03-31T15:37:24;12.00;99.90
52675;DHT22;38569;52.722;6.440;2023-03-31T15:39:55;11.80;99.90
52675;DHT22;38569;52.722;6.440;2023-03-31T15:42:24;11.70;99.90
52675;DHT22;38569;52.722;6.440;2023-03-31T15:44:55;11.50;99.90
52675;DHT22;38569;52.722;6.440;2023-03-31T15:47:23;11.40;99.90
52675;DHT22;38569;52.722;6.440;2023-03-31T15:49:56;11.30;99.90
52675;DHT22;38569;52.722;6.440;2023-03-31T15:52:33;11.20;99.90
52675;DHT22;38569;52.722;6.440;2023-03-31T15:55:00;11.20;99.90
52675;DHT22;38569;52.722;6.440;2023-03-31T15:57:32;11.20;99.90
52675;DHT22;38569;52.722;6.440;2023-03-31T15:59:59;11.20;99.90
52675;DHT22;38569;52.722;6.440;2023-03-31T16:02:34;11.20;99.90
52675;DHT22;38569;52.722;6.440;2023-03-31T16:05:02;11.20;99.90
52675;DHT22;38569;52.722;6.440;2023-03-31T16:07:35;11.20;99.90
52675;DHT22;38569;52.722;6.440;2023-03-31T16:10:17;11.20;99.90
52675;DHT22;38569;52.722;6.440;2023-03-31T16:12:58;11.20;99.90
52675;DHT22;38569;52.722;6.440;2023-03-31T16:15:41;11.20;99.90
52675;DHT22;38569;52.722;6.440;2023-03-31T16:18:16;11.20;99.90
52675;DHT22;38569;52.722;6.440;2023-03-31T16:20:49;11.20;99.90
52675;DHT22;38569;52.722;6.440;2023-03-31T16:23:20;11.20;99.90
52675;DHT22;38569;52.722;6.440;2023-03-31T16:25:47;11.20;99.90
52675;DHT22;38569;52.722;6.440;2023-03-31T16:28:15;11.20;99.90
52675;DHT22;38569;52.722;6.440;2023-03-31T16:30:44;11.20;99.90
52675;DHT22;38569;52.722;6.440;2023-03-31T16:33:12;11.30;99.90
52675;DHT22;38569;52.722;6.440;2023-03-31T16:35:44;11.30;99.90
52675;DHT22;38569;52.722;6.440;2023-03-31T16:38:13;11.40;99.90
52675;DHT22;38569;52.722;6.440;2023-03-31T16:40:46;11.30;99.90
52675;DHT22;38569;52.722;6.440;2023-03-31T16:43:17;11.30;99.90
52675;DHT22;38569;52.722;6.440;2023-03-31T16:45:51;11.30;99.90
52675;DHT22;38569;52.722;6.440;2023-03-31T16:48:18;11.20;99.90
52675;DHT22;38569;52.722;6.440;2023-03-31T16:50:46;11.20;99.90
52675;DHT22;38569;52.722;6.440;2023-03-31T16:53:14;11.20;99.90
52675;DHT22;38569;52.722;6.440;2023-03-31T16:55:40;11.20;99.90
52675;DHT22;38569;52.722;6.440;2023-03-31T16:58:06;11.20;99.90
52675;DHT22;38569;52.722;6.440;2023-03-31T17:00:37;11.20;99.90
52675;DHT22;38569;52.722;6.440;2023-03-31T17:03:05;11.20;99.90
52675;DHT22;38569;52.722;6.440;2023-03-31T17:05:32;11.20;99.90
52675;DHT22;38569;52.722;6.440;2023-03-31T17:08:02;11.20;99.90
52675;DHT22;38569;52.722;6.440;2023-03-31T17:10:27;11.20;99.90
52675;DHT22;38569;52.722;6.440;2023-03-31T17:12:53;11.20;99.90
52675;DHT22;38569;52.722;6.440;2023-03-31T17:15:19;11.20;99.90
52675;DHT22;38569;52.722;6.440;2023-03-31T17:17:45;11.20;99.90
52675;DHT22;38569;52.722;6.440;2023-03-31T17:20:11;11.20;99.90
52675;DHT22;38569;52.722;6.440;2023-03-31T17:22:37;11.10;99.90
52675;DHT22;38569;52.722;6.440;2023-03-31T17:25:03;11.20;99.90
52675;DHT22;38569;52.722;6.440;2023-03-31T17:27:29;11.20;99.90
52675;DHT22;38569;52.722;6.440;2023-03-31T17:29:55;11.10;99.90
52675;DHT22;38569;52.722;6.440;2023-03-31T17:32:21;11.20;99.90
52675;DHT22;38569;52.722;6.440;2023-03-31T17:34:47;11.10;99.90
52675;DHT22;38569;52.722;6.440;2023-03-31T17:37:15;11.10;99.90
52675;DHT22;38569;52.722;6.440;2023-03-31T17:39:41;11.10;99.90
52675;DHT22;38569;52.722;6.440;2023-03-31T17:42:08;11.00;99.90
52675;DHT22;38569;52.722;6.440;2023-03-31T17:44:34;11.00;99.90
52675;DHT22;38569;52.722;6.440;2023-03-31T17:47:00;11.00;99.90
52675;DHT22;38569;52.722;6.440;2023-03-31T17:49:26;10.90;99.90
52675;DHT22;38569;52.722;6.440;2023-03-31T17:51:52;10.80;99.90
52675;DHT22;38569;52.722;6.440;2023-03-31T17:54:18;10.80;99.90
52675;DHT22;38569;52.722;6.440;2023-03-31T17:56:44;10.80;99.90
52675;DHT22;38569;52.722;6.440;2023-03-31T17:59:10;10.70;99.90
52675;DHT22;38569;52.722;6.440;2023-03-31T18:01:36;10.80;99.90
52675;DHT22;38569;52.722;6.440;2023-03-31T18:04:02;10.70;99.90
52675;DHT22;38569;52.722;6.440;2023-03-31T18:06:28;10.70;99.90
52675;DHT22;38569;52.722;6.440;2023-03-31T18:08:55;10.70;99.90
52675;DHT22;38569;52.722;6.440;2023-03-31T18:11:21;10.70;99.90
52675;DHT22;38569;52.722;6.440;2023-03-31T18:13:47;10.70;99.90
52675;DHT22;38569;52.722;6.440;2023-03-31T18:16:13;10.70;99.90
52675;DHT22;38569;52.722;6.440;2023-03-31T18:18:39;10.70;99.90
52675;DHT22;38569;52.722;6.440;2023-03-31T18:21:06;10.70;99.90
52675;DHT22;38569;52.722;6.440;2023-03-31T18:23:32;10.60;99.90
52675;DHT22;38569;52.722;6.440;2023-03-31T18:25:59;10.60;99.90
52675;DHT22;38569;52.722;6.440;2023-03-31T18:28:25;10.60;99.90
52675;DHT22;38569;52.722;6.440;2023-03-31T18:30:51;10.60;99.90
52675;DHT22;38569;52.722;6.440;2023-03-31T18:33:18;10.60;99.90
52675;DHT22;38569;52.722;6.440;2023-03-31T18:35:45;10.50;99.90
52675;DHT22;38569;52.722;6.440;2023-03-31T18:38:14;10.50;99.90
52675;DHT22;38569;52.722;6.440;2023-03-31T18:40:49;10.50;99.90